sensor_id;sensor_type;location;lat;lon;timestamp;P1;durP1;ratioP1;P2;durP2;ratioP2
3131;SDS011;62090;52.330;9.104;2023-06-04T00:00:52;3.17;;;1.90;;
3131;SDS011;62090;52.330;9.104;2023-06-04T00:03:24;5.93;;;2.00;;
3131;SDS011;62090;52.330;9.104;2023-06-04T00:05:54;4.30;;;2.20;;
3131;SDS011;62090;52.330;9.104;2023-06-04T00:08:24;2.20;;;1.73;;
3131;SDS011;62090;52.330;9.104;2023-06-04T00:10:54;5.27;;;2.20;;
3131;SDS011;62090;52.330;9.104;2023-06-04T00:13:24;4.17;;;2.20;;
3131;SDS011;62090;52.330;9.104;2023-06-04T00:15:57;2.60;;;1.70;;
3131;SDS011;62090;52.330;9.104;2023-06-04T00:18:26;4.83;;;2.07;;
3131;SDS011;62090;52.330;9.104;2023-06-04T00:20:56;2.40;;;1.60;;
3131;SDS011;62090;52.330;9.104;2023-06-04T00:23:26;5.07;;;2.63;;
3131;SDS011;62090;52.330;9.104;2023-06-04T00:25:56;3.00;;;1.90;;
3131;SDS011;62090;52.330;9.104;2023-06-04T00:28:26;3.10;;;1.97;;
3131;SDS011;62090;52.330;9.104;2023-06-04T00:30:58;3.37;;;2.03;;
3131;SDS011;62090;52.330;9.104;2023-06-04T00:33:28;4.60;;;2.40;;
3131;SDS011;62090;52.330;9.104;2023-06-04T00:35:58;2.63;;;1.60;;
3131;SDS011;62090;52.330;9.104;2023-06-04T00:38:28;7.63;;;1.67;;
3131;SDS011;62090;52.330;9.104;2023-06-04T00:40:58;6.43;;;2.00;;
3131;SDS011;62090;52.330;9.104;2023-06-04T00:43:28;4.23;;;1.80;;
3131;SDS011;62090;52.330;9.104;2023-06-04T00:46:01;5.63;;;2.17;;
3131;SDS011;62090;52.330;9.104;2023-06-04T00:48:31;7.80;;;1.83;;
3131;SDS011;62090;52.330;9.104;2023-06-04T00:51:03;4.47;;;1.67;;
3131;SDS011;62090;52.330;9.104;2023-06-04T00:53:33;2.50;;;1.57;;
3131;SDS011;62090;52.330;9.104;2023-06-04T00:56:04;5.50;;;2.30;;
3131;SDS011;62090;52.330;9.104;2023-06-04T00:58:37;2.97;;;1.70;;
3131;SDS011;62090;52.330;9.104;2023-06-04T01:01:15;5.43;;;1.73;;
3131;SDS011;62090;52.330;9.104;2023-06-04T01:03:49;2.23;;;1.67;;
3131;SDS011;62090;52.330;9.104;2023-06-04T01:06:25;2.80;;;1.77;;
3131;SDS011;62090;52.330;9.104;2023-06-04T01:09:00;1.90;;;1.50;;
3131;SDS011;62090;52.330;9.104;2023-06-04T01:11:31;3.10;;;1.83;;
3131;SDS011;62090;52.330;9.104;2023-06-04T01:14:05;2.07;;;1.60;;
3131;SDS011;62090;52.330;9.104;2023-06-04T01:16:42;2.50;;;1.63;;
3131;SDS011;62090;52.330;9.104;2023-06-04T01:19:25;3.40;;;2.00;;
3131;SDS011;62090;52.330;9.104;2023-06-04T01:22:25;3.93;;;1.70;;
3131;SDS011;62090;52.330;9.104;2023-06-04T01:25:03;4.13;;;2.47;;
3131;SDS011;62090;52.330;9.104;2023-06-04T01:27:36;3.87;;;2.30;;
3131;SDS011;62090;52.330;9.104;2023-06-04T01:30:07;5.27;;;2.57;;
3131;SDS011;62090;52.330;9.104;2023-06-04T01:32:41;2.70;;;1.93;;
3131;SDS011;62090;52.330;9.104;2023-06-04T01:35:13;5.57;;;2.47;;
3131;SDS011;62090;52.330;9.104;2023-06-04T01:37:43;6.97;;;2.30;;
3131;SDS011;62090;52.330;9.104;2023-06-04T01:40:13;6.60;;;1.77;;
3131;SDS011;62090;52.330;9.104;2023-06-04T01:42:43;4.07;;;2.30;;
3131;SDS011;62090;52.330;9.104;2023-06-04T01:45:13;3.10;;;1.90;;
3131;SDS011;62090;52.330;9.104;2023-06-04T01:47:45;2.20;;;2.00;;
3131;SDS011;62090;52.330;9.104;2023-06-04T01:50:15;4.80;;;2.40;;
3131;SDS011;62090;52.330;9.104;2023-06-04T01:52:45;5.13;;;2.33;;
3131;SDS011;62090;52.330;9.104;2023-06-04T01:55:15;3.93;;;2.40;;
3131;SDS011;62090;52.330;9.104;2023-06-04T01:57:46;4.90;;;2.27;;
3131;SDS011;62090;52.330;9.104;2023-06-04T02:00:17;3.53;;;2.03;;
3131;SDS011;62090;52.330;9.104;2023-06-04T02:02:49;2.97;;;2.13;;
3131;SDS011;62090;52.330;9.104;2023-06-04T02:05:20;3.00;;;2.10;;
3131;SDS011;62090;52.330;9.104;2023-06-04T02:07:50;3.60;;;2.30;;
3131;SDS011;62090;52.330;9.104;2023-06-04T02:10:20;5.60;;;2.23;;
3131;SDS011;62090;52.330;9.104;2023-06-04T02:12:54;7.80;;;2.50;;
3131;SDS011;62090;52.330;9.104;2023-06-04T02:15:26;4.03;;;2.40;;
3131;SDS011;62090;52.330;9.104;2023-06-04T02:17:59;5.67;;;2.63;;
3131;SDS011;62090;52.330;9.104;2023-06-04T02:20:44;3.40;;;2.20;;
3131;SDS011;62090;52.330;9.104;2023-06-04T02:23:15;3.13;;;2.30;;
3131;SDS011;62090;52.330;9.104;2023-06-04T02:25:46;7.83;;;2.43;;
3131;SDS011;62090;52.330;9.104;2023-06-04T02:28:16;5.90;;;2.93;;
3131;SDS011;62090;52.330;9.104;2023-06-04T02:30:46;2.77;;;2.27;;
3131;SDS011;62090;52.330;9.104;2023-06-04T02:33:18;6.43;;;2.20;;
3131;SDS011;62090;52.330;9.104;2023-06-04T02:35:48;3.17;;;2.37;;
3131;SDS011;62090;52.330;9.104;2023-06-04T02:38:18;4.50;;;2.90;;
3131;SDS011;62090;52.330;9.104;2023-06-04T02:40:48;2.60;;;2.03;;
3131;SDS011;62090;52.330;9.104;2023-06-04T02:43:18;3.40;;;2.23;;
3131;SDS011;62090;52.330;9.104;2023-06-04T02:45:48;4.20;;;2.23;;
3131;SDS011;62090;52.330;9.104;2023-06-04T02:48:20;6.40;;;2.40;;
3131;SDS011;62090;52.330;9.104;2023-06-04T02:50:50;5.93;;;2.33;;
3131;SDS011;62090;52.330;9.104;2023-06-04T02:53:20;2.90;;;2.17;;
3131;SDS011;62090;52.330;9.104;2023-06-04T02:55:50;3.90;;;2.37;;
3131;SDS011;62090;52.330;9.104;2023-06-04T02:58:20;3.50;;;2.50;;
3131;SDS011;62090;52.330;9.104;2023-06-04T03:00:51;6.23;;;2.67;;
3131;SDS011;62090;52.330;9.104;2023-06-04T03:03:24;3.43;;;2.10;;
3131;SDS011;62090;52.330;9.104;2023-06-04T03:05:58;3.53;;;2.43;;
3131;SDS011;62090;52.330;9.104;2023-06-04T03:08:31;4.83;;;2.63;;
3131;SDS011;62090;52.330;9.104;2023-06-04T03:11:01;4.20;;;2.70;;
3131;SDS011;62090;52.330;9.104;2023-06-04T03:13:31;8.90;;;2.90;;
3131;SDS011;62090;52.330;9.104;2023-06-04T03:16:01;4.00;;;2.10;;
3131;SDS011;62090;52.330;9.104;2023-06-04T03:18:39;3.80;;;2.70;;
3131;SDS011;62090;52.330;9.104;2023-06-04T03:21:09;3.83;;;2.43;;
3131;SDS011;62090;52.330;9.104;2023-06-04T03:23:41;4.60;;;1.90;;
3131;SDS011;62090;52.330;9.104;2023-06-04T03:26:11;3.30;;;2.10;;
3131;SDS011;62090;52.330;9.104;2023-06-04T03:28:41;2.70;;;2.10;;
3131;SDS011;62090;52.330;9.104;2023-06-04T03:31:14;4.60;;;2.23;;
3131;SDS011;62090;52.330;9.104;2023-06-04T03:33:48;4.90;;;2.17;;
3131;SDS011;62090;52.330;9.104;2023-06-04T03:36:18;2.90;;;2.10;;
3131;SDS011;62090;52.330;9.104;2023-06-04T03:38:58;2.07;;;1.87;;
3131;SDS011;62090;52.330;9.104;2023-06-04T03:41:29;2.53;;;2.20;;
3131;SDS011;62090;52.330;9.104;2023-06-04T03:43:58;2.70;;;1.80;;
3131;SDS011;62090;52.330;9.104;2023-06-04T03:46:30;3.87;;;2.50;;
3131;SDS011;62090;52.330;9.104;2023-06-04T03:49:04;2.93;;;2.27;;
3131;SDS011;62090;52.330;9.104;2023-06-04T03:51:34;4.67;;;2.60;;
3131;SDS011;62090;52.330;9.104;2023-06-04T03:54:04;3.33;;;2.20;;
3131;SDS011;62090;52.330;9.104;2023-06-04T03:56:35;3.37;;;1.90;;
3131;SDS011;62090;52.330;9.104;2023-06-04T03:59:08;2.63;;;1.87;;
3131;SDS011;62090;52.330;9.104;2023-06-04T04:01:38;3.30;;;2.43;;
3131;SDS011;62090;52.330;9.104;2023-06-04T04:04:10;4.07;;;2.57;;
3131;SDS011;62090;52.330;9.104;2023-06-04T04:06:41;4.07;;;2.53;;
3131;SDS011;62090;52.330;9.104;2023-06-04T04:09:11;2.90;;;2.00;;
3131;SDS011;62090;52.330;9.104;2023-06-04T04:11:41;2.20;;;2.00;;
3131;SDS011;62090;52.330;9.104;2023-06-04T04:14:12;4.03;;;2.20;;
3131;SDS011;62090;52.330;9.104;2023-06-04T04:16:42;3.37;;;2.27;;
3131;SDS011;62090;52.330;9.104;2023-06-04T04:19:15;3.33;;;2.40;;
3131;SDS011;62090;52.330;9.104;2023-06-04T04:21:45;5.47;;;2.50;;
3131;SDS011;62090;52.330;9.104;2023-06-04T04:24:21;2.60;;;2.23;;
3131;SDS011;62090;52.330;9.104;2023-06-04T04:26:56;3.43;;;2.03;;
3131;SDS011;62090;52.330;9.104;2023-06-04T04:29:27;4.53;;;2.13;;
3131;SDS011;62090;52.330;9.104;2023-06-04T04:31:59;3.30;;;2.57;;
3131;SDS011;62090;52.330;9.104;2023-06-04T04:34:49;3.73;;;2.80;;
3131;SDS011;62090;52.330;9.104;2023-06-04T04:37:31;10.03;;;2.80;;
3131;SDS011;62090;52.330;9.104;2023-06-04T04:40:01;4.20;;;2.93;;
3131;SDS011;62090;52.330;9.104;2023-06-04T04:42:36;9.37;;;2.87;;
3131;SDS011;62090;52.330;9.104;2023-06-04T04:45:10;4.30;;;3.03;;
3131;SDS011;62090;52.330;9.104;2023-06-04T04:47:41;6.63;;;3.27;;
3131;SDS011;62090;52.330;9.104;2023-06-04T04:50:13;7.07;;;3.00;;
3131;SDS011;62090;52.330;9.104;2023-06-04T04:52:43;3.63;;;2.90;;
3131;SDS011;62090;52.330;9.104;2023-06-04T04:55:13;10.53;;;4.30;;
3131;SDS011;62090;52.330;9.104;2023-06-04T04:57:46;5.30;;;2.93;;
3131;SDS011;62090;52.330;9.104;2023-06-04T05:00:17;5.30;;;2.63;;
3131;SDS011;62090;52.330;9.104;2023-06-04T05:02:51;4.20;;;2.97;;
3131;SDS011;62090;52.330;9.104;2023-06-04T05:05:24;5.60;;;2.80;;
3131;SDS011;62090;52.330;9.104;2023-06-04T05:07:54;10.10;;;4.07;;
3131;SDS011;62090;52.330;9.104;2023-06-04T05:10:29;7.90;;;3.00;;
3131;SDS011;62090;52.330;9.104;2023-06-04T05:13:00;5.30;;;2.20;;
3131;SDS011;62090;52.330;9.104;2023-06-04T05:15:38;4.87;;;2.97;;
3131;SDS011;62090;52.330;9.104;2023-06-04T05:18:11;6.73;;;3.07;;
3131;SDS011;62090;52.330;9.104;2023-06-04T05:20:45;3.93;;;2.73;;
3131;SDS011;62090;52.330;9.104;2023-06-04T05:23:16;4.57;;;3.03;;
3131;SDS011;62090;52.330;9.104;2023-06-04T05:25:48;4.97;;;3.00;;
3131;SDS011;62090;52.330;9.104;2023-06-04T05:28:19;5.57;;;2.73;;
3131;SDS011;62090;52.330;9.104;2023-06-04T05:30:52;7.17;;;3.00;;
3131;SDS011;62090;52.330;9.104;2023-06-04T05:33:30;4.50;;;3.30;;
3131;SDS011;62090;52.330;9.104;2023-06-04T05:36:07;3.63;;;2.90;;
3131;SDS011;62090;52.330;9.104;2023-06-04T05:38:43;5.70;;;3.17;;
3131;SDS011;62090;52.330;9.104;2023-06-04T05:41:16;4.63;;;2.90;;
3131;SDS011;62090;52.330;9.104;2023-06-04T05:43:50;5.50;;;3.00;;
3131;SDS011;62090;52.330;9.104;2023-06-04T05:46:20;3.43;;;2.30;;
3131;SDS011;62090;52.330;9.104;2023-06-04T05:48:51;4.50;;;2.57;;
3131;SDS011;62090;52.330;9.104;2023-06-04T05:51:25;3.50;;;2.23;;
3131;SDS011;62090;52.330;9.104;2023-06-04T05:53:55;3.50;;;2.60;;
3131;SDS011;62090;52.330;9.104;2023-06-04T05:56:25;3.80;;;2.00;;
3131;SDS011;62090;52.330;9.104;2023-06-04T05:58:57;6.00;;;2.40;;
3131;SDS011;62090;52.330;9.104;2023-06-04T06:01:27;4.23;;;2.53;;
3131;SDS011;62090;52.330;9.104;2023-06-04T06:03:57;3.17;;;2.17;;
3131;SDS011;62090;52.330;9.104;2023-06-04T06:06:31;4.33;;;2.60;;
3131;SDS011;62090;52.330;9.104;2023-06-04T06:09:01;8.70;;;3.03;;
3131;SDS011;62090;52.330;9.104;2023-06-04T06:11:32;6.20;;;2.40;;
3131;SDS011;62090;52.330;9.104;2023-06-04T06:14:02;5.13;;;2.60;;
3131;SDS011;62090;52.330;9.104;2023-06-04T06:16:33;7.17;;;2.20;;
3131;SDS011;62090;52.330;9.104;2023-06-04T06:19:03;10.77;;;2.40;;
3131;SDS011;62090;52.330;9.104;2023-06-04T06:21:35;6.33;;;2.23;;
3131;SDS011;62090;52.330;9.104;2023-06-04T06:24:05;4.37;;;2.30;;
3131;SDS011;62090;52.330;9.104;2023-06-04T06:26:36;3.10;;;2.30;;
3131;SDS011;62090;52.330;9.104;2023-06-04T06:29:08;5.60;;;2.40;;
3131;SDS011;62090;52.330;9.104;2023-06-04T06:31:38;2.90;;;2.30;;
3131;SDS011;62090;52.330;9.104;2023-06-04T06:34:08;9.53;;;3.17;;
3131;SDS011;62090;52.330;9.104;2023-06-04T06:36:41;6.57;;;2.80;;
3131;SDS011;62090;52.330;9.104;2023-06-04T06:39:11;4.87;;;2.60;;
3131;SDS011;62090;52.330;9.104;2023-06-04T06:41:41;4.30;;;2.33;;
3131;SDS011;62090;52.330;9.104;2023-06-04T06:44:16;2.73;;;2.43;;
3131;SDS011;62090;52.330;9.104;2023-06-04T06:46:45;3.63;;;2.90;;
3131;SDS011;62090;52.330;9.104;2023-06-04T06:49:16;4.80;;;2.60;;
3131;SDS011;62090;52.330;9.104;2023-06-04T06:51:48;5.73;;;2.40;;
3131;SDS011;62090;52.330;9.104;2023-06-04T06:54:18;2.37;;;1.90;;
3131;SDS011;62090;52.330;9.104;2023-06-04T06:56:49;4.87;;;2.47;;
3131;SDS011;62090;52.330;9.104;2023-06-04T06:59:19;3.00;;;2.37;;
3131;SDS011;62090;52.330;9.104;2023-06-04T07:01:49;3.47;;;2.20;;
3131;SDS011;62090;52.330;9.104;2023-06-04T07:04:19;3.17;;;2.10;;
3131;SDS011;62090;52.330;9.104;2023-06-04T07:06:51;3.80;;;2.23;;
3131;SDS011;62090;52.330;9.104;2023-06-04T07:09:21;4.10;;;1.70;;
3131;SDS011;62090;52.330;9.104;2023-06-04T07:11:51;3.40;;;2.10;;
3131;SDS011;62090;52.330;9.104;2023-06-04T07:14:21;2.97;;;2.17;;
3131;SDS011;62090;52.330;9.104;2023-06-04T07:16:51;2.70;;;2.20;;
3131;SDS011;62090;52.330;9.104;2023-06-04T07:19:21;3.80;;;2.10;;
3131;SDS011;62090;52.330;9.104;2023-06-04T07:21:54;2.70;;;2.00;;
3131;SDS011;62090;52.330;9.104;2023-06-04T07:24:24;3.67;;;2.17;;
3131;SDS011;62090;52.330;9.104;2023-06-04T07:26:54;6.43;;;1.87;;
3131;SDS011;62090;52.330;9.104;2023-06-04T07:29:24;3.13;;;2.07;;
3131;SDS011;62090;52.330;9.104;2023-06-04T07:31:53;3.53;;;2.10;;
3131;SDS011;62090;52.330;9.104;2023-06-04T07:34:23;3.93;;;1.80;;
3131;SDS011;62090;52.330;9.104;2023-06-04T07:36:56;3.43;;;2.20;;
3131;SDS011;62090;52.330;9.104;2023-06-04T07:39:26;7.30;;;1.90;;
3131;SDS011;62090;52.330;9.104;2023-06-04T07:41:56;4.40;;;1.80;;
3131;SDS011;62090;52.330;9.104;2023-06-04T07:44:26;6.37;;;2.13;;
3131;SDS011;62090;52.330;9.104;2023-06-04T07:46:55;3.13;;;1.97;;
3131;SDS011;62090;52.330;9.104;2023-06-04T07:49:25;4.93;;;2.03;;
3131;SDS011;62090;52.330;9.104;2023-06-04T07:51:58;4.30;;;2.10;;
3131;SDS011;62090;52.330;9.104;2023-06-04T07:54:28;3.10;;;2.10;;
3131;SDS011;62090;52.330;9.104;2023-06-04T07:56:58;4.87;;;2.13;;
3131;SDS011;62090;52.330;9.104;2023-06-04T07:59:28;3.00;;;1.70;;
3131;SDS011;62090;52.330;9.104;2023-06-04T08:01:58;3.17;;;2.00;;
3131;SDS011;62090;52.330;9.104;2023-06-04T08:04:28;2.77;;;1.60;;
3131;SDS011;62090;52.330;9.104;2023-06-04T08:07:01;2.17;;;1.50;;
3131;SDS011;62090;52.330;9.104;2023-06-04T08:09:31;1.80;;;1.20;;
3131;SDS011;62090;52.330;9.104;2023-06-04T08:12:01;11.70;;;1.60;;
3131;SDS011;62090;52.330;9.104;2023-06-04T08:14:33;1.87;;;1.47;;
3131;SDS011;62090;52.330;9.104;2023-06-04T08:17:03;7.13;;;1.80;;
3131;SDS011;62090;52.330;9.104;2023-06-04T08:19:41;1.70;;;1.30;;
3131;SDS011;62090;52.330;9.104;2023-06-04T08:22:33;4.67;;;1.60;;
3131;SDS011;62090;52.330;9.104;2023-06-04T08:25:23;10.83;;;1.60;;
3131;SDS011;62090;52.330;9.104;2023-06-04T08:28:12;4.27;;;1.43;;
3131;SDS011;62090;52.330;9.104;2023-06-04T08:31:03;5.03;;;1.57;;
3131;SDS011;62090;52.330;9.104;2023-06-04T08:33:41;2.80;;;1.33;;
3131;SDS011;62090;52.330;9.104;2023-06-04T08:36:15;2.13;;;1.10;;
3131;SDS011;62090;52.330;9.104;2023-06-04T08:38:47;3.40;;;1.70;;
3131;SDS011;62090;52.330;9.104;2023-06-04T08:41:22;4.43;;;1.33;;
3131;SDS011;62090;52.330;9.104;2023-06-04T08:43:57;5.23;;;1.63;;
3131;SDS011;62090;52.330;9.104;2023-06-04T08:46:29;5.73;;;1.33;;
3131;SDS011;62090;52.330;9.104;2023-06-04T08:49:02;2.40;;;1.27;;
3131;SDS011;62090;52.330;9.104;2023-06-04T08:51:34;2.37;;;1.30;;
3131;SDS011;62090;52.330;9.104;2023-06-04T08:54:08;2.07;;;1.13;;
3131;SDS011;62090;52.330;9.104;2023-06-04T08:56:40;5.33;;;1.47;;
3131;SDS011;62090;52.330;9.104;2023-06-04T08:59:12;1.63;;;1.20;;
3131;SDS011;62090;52.330;9.104;2023-06-04T09:01:41;2.30;;;1.27;;
3131;SDS011;62090;52.330;9.104;2023-06-04T09:04:13;1.90;;;1.10;;
3131;SDS011;62090;52.330;9.104;2023-06-04T09:06:46;3.27;;;1.47;;
3131;SDS011;62090;52.330;9.104;2023-06-04T09:09:19;2.97;;;1.73;;
3131;SDS011;62090;52.330;9.104;2023-06-04T09:11:51;1.60;;;1.20;;
3131;SDS011;62090;52.330;9.104;2023-06-04T09:14:22;2.90;;;1.27;;
3131;SDS011;62090;52.330;9.104;2023-06-04T09:16:53;4.13;;;1.23;;
3131;SDS011;62090;52.330;9.104;2023-06-04T09:19:25;3.40;;;1.10;;
3131;SDS011;62090;52.330;9.104;2023-06-04T09:21:55;3.30;;;1.50;;
3131;SDS011;62090;52.330;9.104;2023-06-04T09:24:40;4.17;;;1.40;;
3131;SDS011;62090;52.330;9.104;2023-06-04T09:27:13;4.33;;;1.30;;
3131;SDS011;62090;52.330;9.104;2023-06-04T09:29:50;5.73;;;1.23;;
3131;SDS011;62090;52.330;9.104;2023-06-04T09:32:21;5.80;;;1.30;;
3131;SDS011;62090;52.330;9.104;2023-06-04T09:34:52;3.43;;;1.47;;
3131;SDS011;62090;52.330;9.104;2023-06-04T09:37:22;2.30;;;1.30;;
3131;SDS011;62090;52.330;9.104;2023-06-04T09:39:56;1.50;;;0.90;;
3131;SDS011;62090;52.330;9.104;2023-06-04T09:42:26;2.57;;;1.43;;
3131;SDS011;62090;52.330;9.104;2023-06-04T09:44:56;2.20;;;1.10;;
3131;SDS011;62090;52.330;9.104;2023-06-04T09:47:27;3.50;;;0.97;;
3131;SDS011;62090;52.330;9.104;2023-06-04T09:50:09;4.87;;;1.40;;
3131;SDS011;62090;52.330;9.104;2023-06-04T09:52:39;6.13;;;1.30;;
3131;SDS011;62090;52.330;9.104;2023-06-04T09:55:20;3.73;;;1.10;;
3131;SDS011;62090;52.330;9.104;2023-06-04T09:57:50;5.80;;;1.50;;
3131;SDS011;62090;52.330;9.104;2023-06-04T10:00:21;1.70;;;1.20;;
3131;SDS011;62090;52.330;9.104;2023-06-04T10:02:55;3.77;;;1.53;;
3131;SDS011;62090;52.330;9.104;2023-06-04T10:05:27;8.80;;;1.50;;
3131;SDS011;62090;52.330;9.104;2023-06-04T10:08:02;5.60;;;1.63;;
3131;SDS011;62090;52.330;9.104;2023-06-04T10:10:37;3.33;;;1.37;;
3131;SDS011;62090;52.330;9.104;2023-06-04T10:13:09;3.23;;;1.57;;
3131;SDS011;62090;52.330;9.104;2023-06-04T10:15:46;3.40;;;1.07;;
3131;SDS011;62090;52.330;9.104;2023-06-04T10:18:16;4.53;;;1.40;;
3131;SDS011;62090;52.330;9.104;2023-06-04T10:20:48;5.50;;;1.33;;
3131;SDS011;62090;52.330;9.104;2023-06-04T10:23:20;3.60;;;1.10;;
3131;SDS011;62090;52.330;9.104;2023-06-04T10:25:54;4.20;;;1.53;;
3131;SDS011;62090;52.330;9.104;2023-06-04T10:28:23;4.77;;;1.60;;
3131;SDS011;62090;52.330;9.104;2023-06-04T10:30:54;3.07;;;1.17;;
3131;SDS011;62090;52.330;9.104;2023-06-04T10:33:24;2.40;;;1.20;;
3131;SDS011;62090;52.330;9.104;2023-06-04T10:35:55;5.17;;;1.10;;
3131;SDS011;62090;52.330;9.104;2023-06-04T10:38:24;1.87;;;1.30;;
3131;SDS011;62090;52.330;9.104;2023-06-04T10:40:59;2.40;;;1.13;;
3131;SDS011;62090;52.330;9.104;2023-06-04T10:43:43;3.07;;;1.07;;
3131;SDS011;62090;52.330;9.104;2023-06-04T10:46:16;1.90;;;1.20;;
3131;SDS011;62090;52.330;9.104;2023-06-04T10:48:48;1.60;;;1.23;;
3131;SDS011;62090;52.330;9.104;2023-06-04T10:51:28;1.50;;;0.93;;
3131;SDS011;62090;52.330;9.104;2023-06-04T10:54:00;3.83;;;1.20;;
3131;SDS011;62090;52.330;9.104;2023-06-04T10:56:34;2.30;;;1.07;;
3131;SDS011;62090;52.330;9.104;2023-06-04T10:59:14;8.80;;;1.70;;
3131;SDS011;62090;52.330;9.104;2023-06-04T11:01:45;2.13;;;1.00;;
3131;SDS011;62090;52.330;9.104;2023-06-04T11:04:19;3.40;;;1.23;;
3131;SDS011;62090;52.330;9.104;2023-06-04T11:07:00;2.90;;;1.00;;
3131;SDS011;62090;52.330;9.104;2023-06-04T11:09:36;2.30;;;1.27;;
3131;SDS011;62090;52.330;9.104;2023-06-04T11:12:09;1.70;;;1.27;;
3131;SDS011;62090;52.330;9.104;2023-06-04T11:14:39;1.33;;;0.87;;
3131;SDS011;62090;52.330;9.104;2023-06-04T11:17:09;6.30;;;1.80;;
3131;SDS011;62090;52.330;9.104;2023-06-04T11:19:40;3.57;;;1.03;;
3131;SDS011;62090;52.330;9.104;2023-06-04T11:22:10;4.10;;;1.07;;
3131;SDS011;62090;52.330;9.104;2023-06-04T11:24:40;2.00;;;1.20;;
3131;SDS011;62090;52.330;9.104;2023-06-04T11:27:13;1.90;;;1.17;;
3131;SDS011;62090;52.330;9.104;2023-06-04T11:30:01;2.60;;;1.03;;
3131;SDS011;62090;52.330;9.104;2023-06-04T11:32:32;6.40;;;1.43;;
3131;SDS011;62090;52.330;9.104;2023-06-04T11:35:02;4.63;;;1.50;;
3131;SDS011;62090;52.330;9.104;2023-06-04T11:37:33;5.23;;;1.30;;
3131;SDS011;62090;52.330;9.104;2023-06-04T11:40:14;2.03;;;1.10;;
3131;SDS011;62090;52.330;9.104;2023-06-04T11:42:48;1.40;;;1.00;;
3131;SDS011;62090;52.330;9.104;2023-06-04T11:45:19;1.63;;;1.13;;
3131;SDS011;62090;52.330;9.104;2023-06-04T11:47:52;18.13;;;3.70;;
3131;SDS011;62090;52.330;9.104;2023-06-04T11:50:26;2.63;;;1.00;;
3131;SDS011;62090;52.330;9.104;2023-06-04T11:52:56;2.17;;;1.30;;
3131;SDS011;62090;52.330;9.104;2023-06-04T11:55:27;2.43;;;1.57;;
3131;SDS011;62090;52.330;9.104;2023-06-04T11:58:00;2.33;;;1.37;;
3131;SDS011;62090;52.330;9.104;2023-06-04T12:00:30;5.30;;;1.10;;
3131;SDS011;62090;52.330;9.104;2023-06-04T12:03:00;3.10;;;1.00;;
3131;SDS011;62090;52.330;9.104;2023-06-04T12:05:31;4.97;;;2.77;;
3131;SDS011;62090;52.330;9.104;2023-06-04T12:08:04;2.07;;;1.10;;
3131;SDS011;62090;52.330;9.104;2023-06-04T12:10:36;1.10;;;0.90;;
3131;SDS011;62090;52.330;9.104;2023-06-04T12:13:09;7.90;;;1.50;;
3131;SDS011;62090;52.330;9.104;2023-06-04T12:15:40;5.73;;;1.07;;
3131;SDS011;62090;52.330;9.104;2023-06-04T12:18:10;10.93;;;1.23;;
3131;SDS011;62090;52.330;9.104;2023-06-04T12:20:40;7.80;;;1.20;;
3131;SDS011;62090;52.330;9.104;2023-06-04T12:23:19;2.13;;;1.00;;
3131;SDS011;62090;52.330;9.104;2023-06-04T12:25:50;6.43;;;1.70;;
3131;SDS011;62090;52.330;9.104;2023-06-04T12:28:23;2.07;;;1.27;;
3131;SDS011;62090;52.330;9.104;2023-06-04T12:30:53;2.20;;;1.23;;
3131;SDS011;62090;52.330;9.104;2023-06-04T12:33:22;6.63;;;1.40;;
3131;SDS011;62090;52.330;9.104;2023-06-04T12:35:52;3.70;;;1.10;;
3131;SDS011;62090;52.330;9.104;2023-06-04T12:38:22;1.40;;;1.20;;
3131;SDS011;62090;52.330;9.104;2023-06-04T12:40:53;2.97;;;1.17;;
3131;SDS011;62090;52.330;9.104;2023-06-04T12:43:26;2.00;;;1.30;;
3131;SDS011;62090;52.330;9.104;2023-06-04T12:46:00;9.33;;;1.40;;
3131;SDS011;62090;52.330;9.104;2023-06-04T12:48:30;3.93;;;0.90;;
3131;SDS011;62090;52.330;9.104;2023-06-04T12:51:00;1.47;;;1.10;;
3131;SDS011;62090;52.330;9.104;2023-06-04T12:53:30;1.80;;;1.00;;
3131;SDS011;62090;52.330;9.104;2023-06-04T12:55:59;1.83;;;1.10;;
3131;SDS011;62090;52.330;9.104;2023-06-04T12:58:32;2.57;;;1.40;;
3131;SDS011;62090;52.330;9.104;2023-06-04T13:01:02;3.13;;;1.20;;
3131;SDS011;62090;52.330;9.104;2023-06-04T13:03:32;3.40;;;1.30;;
3131;SDS011;62090;52.330;9.104;2023-06-04T13:06:03;3.00;;;1.30;;
3131;SDS011;62090;52.330;9.104;2023-06-04T13:08:33;2.70;;;1.13;;
3131;SDS011;62090;52.330;9.104;2023-06-04T13:11:03;4.40;;;1.13;;
3131;SDS011;62090;52.330;9.104;2023-06-04T13:13:36;4.10;;;1.20;;
3131;SDS011;62090;52.330;9.104;2023-06-04T13:16:07;6.97;;;1.20;;
3131;SDS011;62090;52.330;9.104;2023-06-04T13:18:37;4.33;;;1.80;;
3131;SDS011;62090;52.330;9.104;2023-06-04T13:21:07;1.40;;;1.07;;
3131;SDS011;62090;52.330;9.104;2023-06-04T13:23:37;2.20;;;1.17;;
3131;SDS011;62090;52.330;9.104;2023-06-04T13:26:14;1.40;;;1.03;;
3131;SDS011;62090;52.330;9.104;2023-06-04T13:28:46;1.77;;;1.07;;
3131;SDS011;62090;52.330;9.104;2023-06-04T13:31:16;2.93;;;1.30;;
3131;SDS011;62090;52.330;9.104;2023-06-04T13:33:46;5.00;;;1.30;;
3131;SDS011;62090;52.330;9.104;2023-06-04T13:36:16;2.30;;;1.20;;
3131;SDS011;62090;52.330;9.104;2023-06-04T13:38:46;2.87;;;1.27;;
3131;SDS011;62090;52.330;9.104;2023-06-04T13:41:19;7.30;;;1.40;;
3131;SDS011;62090;52.330;9.104;2023-06-04T13:43:52;1.10;;;1.00;;
3131;SDS011;62090;52.330;9.104;2023-06-04T13:46:22;1.93;;;1.10;;
3131;SDS011;62090;52.330;9.104;2023-06-04T13:48:52;2.60;;;1.17;;
3131;SDS011;62090;52.330;9.104;2023-06-04T13:51:21;3.40;;;1.50;;
3131;SDS011;62090;52.330;9.104;2023-06-04T13:53:51;3.53;;;1.33;;
3131;SDS011;62090;52.330;9.104;2023-06-04T13:56:21;1.10;;;0.90;;
3131;SDS011;62090;52.330;9.104;2023-06-04T13:58:54;3.33;;;1.30;;
3131;SDS011;62090;52.330;9.104;2023-06-04T14:01:24;1.50;;;1.10;;
3131;SDS011;62090;52.330;9.104;2023-06-04T14:03:54;1.70;;;1.40;;
3131;SDS011;62090;52.330;9.104;2023-06-04T14:06:25;2.33;;;1.40;;
3131;SDS011;62090;52.330;9.104;2023-06-04T14:08:55;2.33;;;1.40;;
3131;SDS011;62090;52.330;9.104;2023-06-04T14:11:25;4.80;;;1.90;;
3131;SDS011;62090;52.330;9.104;2023-06-04T14:13:57;4.30;;;2.00;;
3131;SDS011;62090;52.330;9.104;2023-06-04T14:16:27;1.40;;;1.30;;
3131;SDS011;62090;52.330;9.104;2023-06-04T14:18:57;10.60;;;2.00;;
3131;SDS011;62090;52.330;9.104;2023-06-04T14:21:27;4.87;;;3.30;;
3131;SDS011;62090;52.330;9.104;2023-06-04T14:23:57;4.77;;;2.10;;
3131;SDS011;62090;52.330;9.104;2023-06-04T14:26:27;2.70;;;1.57;;
3131;SDS011;62090;52.330;9.104;2023-06-04T14:28:59;7.37;;;1.13;;
3131;SDS011;62090;52.330;9.104;2023-06-04T14:31:29;3.10;;;1.40;;
3131;SDS011;62090;52.330;9.104;2023-06-04T14:33:59;4.83;;;1.40;;
3131;SDS011;62090;52.330;9.104;2023-06-04T14:36:29;2.33;;;1.20;;
3131;SDS011;62090;52.330;9.104;2023-06-04T14:38:59;4.40;;;1.40;;
3131;SDS011;62090;52.330;9.104;2023-06-04T14:41:29;2.60;;;1.40;;
3131;SDS011;62090;52.330;9.104;2023-06-04T14:44:02;4.30;;;1.50;;
3131;SDS011;62090;52.330;9.104;2023-06-04T14:46:32;2.57;;;1.40;;
3131;SDS011;62090;52.330;9.104;2023-06-04T14:49:02;2.30;;;1.30;;
3131;SDS011;62090;52.330;9.104;2023-06-04T14:51:32;1.30;;;1.20;;
3131;SDS011;62090;52.330;9.104;2023-06-04T14:54:03;3.07;;;1.40;;
3131;SDS011;62090;52.330;9.104;2023-06-04T14:56:33;1.40;;;1.20;;
3131;SDS011;62090;52.330;9.104;2023-06-04T14:59:06;2.80;;;1.20;;
3131;SDS011;62090;52.330;9.104;2023-06-04T15:01:38;2.10;;;1.27;;
3131;SDS011;62090;52.330;9.104;2023-06-04T15:04:08;7.80;;;1.50;;
3131;SDS011;62090;52.330;9.104;2023-06-04T15:06:38;5.30;;;1.70;;
3131;SDS011;62090;52.330;9.104;2023-06-04T15:09:07;2.10;;;1.40;;
3131;SDS011;62090;52.330;9.104;2023-06-04T15:11:37;2.60;;;1.60;;
3131;SDS011;62090;52.330;9.104;2023-06-04T15:14:10;1.67;;;1.30;;
3131;SDS011;62090;52.330;9.104;2023-06-04T15:16:39;2.70;;;1.57;;
3131;SDS011;62090;52.330;9.104;2023-06-04T15:19:09;3.10;;;1.60;;
3131;SDS011;62090;52.330;9.104;2023-06-04T15:21:39;4.33;;;1.27;;
3131;SDS011;62090;52.330;9.104;2023-06-04T15:24:10;2.13;;;1.40;;
3131;SDS011;62090;52.330;9.104;2023-06-04T15:26:40;2.13;;;1.20;;
3131;SDS011;62090;52.330;9.104;2023-06-04T15:29:13;2.23;;;1.40;;